»·PEaware :: UAL576 KABQ-KPSP

UAL576 :: KABQ-KPSP

FLIGHT INFORMATION

Flight Status: Arrived
Operator:
United Airlines
More flights by this operator :: More flights under this callsign
Pilot: Anonymous 8274 (8274)
Aircraft: BOEING 737-300
(B733)
More flights by this aircraft type
Origin: KABQ Albuquerque Intl Sunport
United States
Destination: KPSP Palm Springs Intl
United States
More flights between these airports :: More routes between these airports
Route: MNZNO3 SJN J18 PXR J65 BLH CLOWD1
File this flight plan on PilotEdge
Remarks:
Altitude:
(Current/Filed)
30,000ft
Speed:
(Current/Filed)
460kts
Departed: 20-Oct-18 09:50 PM
Arrived: 20-Oct-18 11:16 PM
Distance/Time
Traveled:
495nm/1:26
Distance/Time
To Go:
Arrived

Flight Plot

Page will automatically refresh every two minutes.

Flight plan parsing failed; only flown route is shown


Map Options




Map Legend


Flown Route
Filed Route
Departure Airport
Arrival Airport
Navaid (VOR, NDB)
Fix

Horizontal Profiles

Position Reports

Time Latitude Longitude Heading Altitude Ground
Speed
20-Oct-18 21:17 35.046957 -106.614496 342 5316ft 0kts
20-Oct-18 21:18 35.046957 -106.614496 342 5316ft 0kts
20-Oct-18 21:19 35.046957 -106.614496 342 5316ft 0kts
20-Oct-18 21:20 35.046957 -106.614496 342 5316ft 0kts
20-Oct-18 21:21 35.046957 -106.614496 342 5316ft 0kts
20-Oct-18 21:22 35.046957 -106.614496 342 5316ft 0kts
20-Oct-18 21:23 35.046957 -106.614496 342 5316ft 0kts
20-Oct-18 21:24 35.046957 -106.614496 342 5316ft 0kts
20-Oct-18 21:25 35.046957 -106.614496 342 5316ft 0kts
20-Oct-18 21:26 35.046957 -106.614496 342 5316ft 0kts
20-Oct-18 21:27 35.046957 -106.614496 342 5316ft 0kts
20-Oct-18 21:28 35.046957 -106.614496 342 5316ft 0kts
20-Oct-18 21:29 35.046957 -106.614496 342 5316ft 0kts
20-Oct-18 21:30 35.046957 -106.614496 342 5316ft 0kts
20-Oct-18 21:31 35.046957 -106.614496 342 5316ft 0kts
20-Oct-18 21:32 35.046957 -106.614496 342 5316ft 0kts
20-Oct-18 21:33 35.046957 -106.614496 342 5316ft 0kts
20-Oct-18 21:34 35.046957 -106.614496 342 5316ft 0kts
20-Oct-18 21:35 35.046957 -106.614496 342 5316ft 0kts
20-Oct-18 21:36 35.046957 -106.614496 342 5316ft 0kts
20-Oct-18 21:37 35.046957 -106.614496 342 5316ft 0kts
20-Oct-18 21:38 35.046957 -106.614497 342 5316ft 0kts
20-Oct-18 21:39 35.046907 -106.614478 342 5316ft 2kts
20-Oct-18 21:40 35.046397 -106.614267 313 5316ft 2kts
20-Oct-18 21:41 35.046345 -106.614030 267 5316ft 0kts
20-Oct-18 21:42 35.046345 -106.614030 267 5316ft 0kts
20-Oct-18 21:43 35.046345 -106.614030 267 5316ft 0kts
20-Oct-18 21:44 35.046329 -106.614586 267 5316ft 8kts
20-Oct-18 21:45 35.045750 -106.615345 248 5316ft 0kts
20-Oct-18 21:46 35.045750 -106.615347 248 5316ft 0kts
20-Oct-18 21:47 35.045578 -106.619687 270 5316ft 16kts
20-Oct-18 21:48 35.045341 -106.621323 204 5316ft 0kts
20-Oct-18 21:49 35.045341 -106.621323 204 5316ft 0kts
20-Oct-18 21:50 35.045341 -106.621323 204 5316ft 0kts
20-Oct-18 21:51 35.044344 -106.620522 90 5316ft 10kts
20-Oct-18 21:52 35.044487 -106.586200 87 5590ft 159kts
20-Oct-18 21:53 35.047296 -106.530316 86 6877ft 194kts
20-Oct-18 21:54 35.000424 -106.503822 187 8533ft 254kts
20-Oct-18 21:55 34.924597 -106.513979 179 9077ft 294kts
20-Oct-18 21:56 34.844750 -106.517530 177 11821ft 297kts
20-Oct-18 21:57 34.782381 -106.580015 245 13129ft 359kts
20-Oct-18 21:58 34.741722 -106.695150 243 15330ft 376kts
20-Oct-18 21:59 34.696849 -106.810284 244 17679ft 382kts
20-Oct-18 22:00 34.650595 -106.928814 245 19603ft 396kts
20-Oct-18 22:01 34.603358 -107.049628 245 21515ft 405kts
20-Oct-18 22:02 34.569533 -107.181415 252 23069ft 418kts
20-Oct-18 22:03 34.535662 -107.317982 252 24483ft 431kts
20-Oct-18 22:04 34.500750 -107.457862 251 25947ft 440kts
20-Oct-18 22:05 34.464961 -107.600464 251 27295ft 449kts
20-Oct-18 22:06 34.431578 -107.745103 265 28649ft 454kts
20-Oct-18 22:07 34.432784 -107.896769 267 30166ft 451kts
20-Oct-18 22:08 34.432572 -108.048147 267 30465ft 450kts
20-Oct-18 22:09 34.432130 -108.198997 267 30454ft 450kts
20-Oct-18 22:10 34.431506 -108.349272 267 30455ft 449kts
20-Oct-18 22:11 34.430698 -108.499647 267 30455ft 449kts
20-Oct-18 22:12 34.429707 -108.649780 267 30426ft 450kts
20-Oct-18 22:13 34.428569 -108.796818 267 30316ft 449kts
20-Oct-18 22:14 34.427211 -108.947399 267 30320ft 450kts
20-Oct-18 22:15 34.425671 -109.097737 266 30319ft 449kts
20-Oct-18 22:16 34.393196 -109.238220 244 30324ft 443kts
20-Oct-18 22:17 34.346245 -109.375266 245 30319ft 443kts
20-Oct-18 22:18 34.300164 -109.511781 245 30320ft 443kts
20-Oct-18 22:19 34.253489 -109.649093 245 30320ft 442kts
20-Oct-18 22:20 34.209125 -109.778842 245 30302ft 448kts
20-Oct-18 22:21 34.160771 -109.920246 246 30363ft 460kts
20-Oct-18 22:22 34.112268 -110.061449 246 30345ft 459kts
20-Oct-18 22:23 34.063485 -110.202790 246 30347ft 459kts
20-Oct-18 22:24 34.014586 -110.343840 246 30347ft 459kts
20-Oct-18 22:25 33.964841 -110.485062 246 30347ft 459kts
20-Oct-18 22:26 33.915626 -110.625746 246 30344ft 459kts
20-Oct-18 22:27 33.867892 -110.761234 245 30264ft 459kts
20-Oct-18 22:28 33.819244 -110.898272 245 30266ft 460kts
20-Oct-18 22:29 33.769579 -111.038147 245 30266ft 460kts
20-Oct-18 22:30 33.719587 -111.178594 245 30266ft 461kts
20-Oct-18 22:31 33.669465 -111.318203 245 30166ft 460kts
20-Oct-18 22:32 33.619049 -111.458332 245 30010ft 462kts
20-Oct-18 22:33 33.568360 -111.598905 245 29996ft 463kts
20-Oct-18 22:34 33.518486 -111.736858 245 29996ft 463kts
20-Oct-18 22:35 33.468164 -111.875265 245 29996ft 463kts
20-Oct-18 22:36 33.430526 -112.015667 274 29996ft 464kts
20-Oct-18 22:37 33.438468 -112.169165 272 29998ft 465kts
20-Oct-18 22:38 33.442501 -112.322342 272 29968ft 464kts
20-Oct-18 22:39 33.446334 -112.475768 272 29992ft 465kts
20-Oct-18 22:40 33.449964 -112.628672 273 30003ft 457kts
20-Oct-18 22:41 33.453257 -112.775215 272 29998ft 439kts
20-Oct-18 22:42 33.456363 -112.920140 272 29965ft 439kts
20-Oct-18 22:43 33.459294 -113.065160 272 29969ft 439kts
20-Oct-18 22:44 33.462062 -113.210466 272 29968ft 439kts
20-Oct-18 22:45 33.464906 -113.355397 275 29967ft 439kts
20-Oct-18 22:46 33.478589 -113.499635 278 29970ft 440kts
20-Oct-18 22:47 33.492826 -113.644024 278 29969ft 440kts
20-Oct-18 22:48 33.506778 -113.787634 277 29963ft 441kts
20-Oct-18 22:49 33.520479 -113.932532 277 29968ft 440kts
20-Oct-18 22:50 33.534092 -114.077672 277 29946ft 439kts
20-Oct-18 22:51 33.547643 -114.222244 278 29941ft 439kts
20-Oct-18 22:52 33.560998 -114.366534 278 29942ft 439kts
20-Oct-18 22:53 33.574240 -114.511461 278 29942ft 440kts
20-Oct-18 22:54 33.586992 -114.652865 277 29940ft 440kts
20-Oct-18 22:55 33.604135 -114.789725 292 29948ft 436kts
20-Oct-18 22:56 33.649741 -114.923899 292 27499ft 438kts
20-Oct-18 22:57 33.692843 -115.054707 292 25207ft 413kts
20-Oct-18 22:58 33.733872 -115.179809 292 23047ft 407kts
20-Oct-18 22:59 33.773696 -115.301785 292 20920ft 384kts
20-Oct-18 23:00 33.812327 -115.420535 292 18887ft 379kts
20-Oct-18 23:01 33.848879 -115.534673 292 16923ft 362kts
20-Oct-18 23:02 33.884917 -115.646592 293 15068ft 349kts
20-Oct-18 23:03 33.914391 -115.747957 274 13439ft 351kts
20-Oct-18 23:04 33.907771 -115.862039 267 11607ft 345kts
20-Oct-18 23:05 33.875958 -115.960460 215 9928ft 317kts
20-Oct-18 23:06 33.814488 -116.010442 212 9344ft 254kts
20-Oct-18 23:07 33.754273 -116.058961 212 7718ft 260kts
20-Oct-18 23:08 33.693636 -116.107683 212 6298ft 256kts
20-Oct-18 23:09 33.636319 -116.157514 241 5415ft 241kts
20-Oct-18 23:10 33.643284 -116.225710 287 5002ft 185kts
20-Oct-18 23:11 33.657636 -116.288351 286 4945ft 194kts
20-Oct-18 23:12 33.671737 -116.349918 287 4075ft 185kts
20-Oct-18 23:13 33.705326 -116.392857 324 3152ft 181kts
20-Oct-18 23:14 33.742336 -116.427755 320 2520ft 156kts
20-Oct-18 23:15 33.775873 -116.460175 324 1629ft 153kts
20-Oct-18 23:16 33.809744 -116.489860 324 848ft 151kts
20-Oct-18 23:17 33.837225 -116.514377 323 484ft 58kts
20-Oct-18 23:18 33.839448 -116.517773 183 484ft 0kts
20-Oct-18 23:19 33.839448 -116.517773 183 484ft 0kts
20-Oct-18 23:20 33.836449 -116.515778 150 484ft 24kts
20-Oct-18 23:21 33.830546 -116.510565 143 484ft 28kts
20-Oct-18 23:22 33.824572 -116.506067 147 484ft 17kts
20-Oct-18 23:23 33.835841 -116.513142 323 484ft 68kts
20-Oct-18 23:24 33.821611 -116.500484 323 550ft 149kts
20-Oct-18 23:25 33.839871 -116.516935 283 484ft 14kts
20-Oct-18 23:26 33.834046 -116.511548 323 484ft 86kts
20-Oct-18 23:27 33.812946 -116.492704 323 763ft 152kts
20-Oct-18 23:28 33.838418 -116.515450 323 484ft 56kts
20-Oct-18 23:29 33.839448 -116.517772 183 484ft 0kts
20-Oct-18 23:30 33.839442 -116.517773 183 484ft 0kts
20-Oct-18 23:31 33.835959 -116.515386 144 484ft 24kts
20-Oct-18 23:32 33.830008 -116.510091 143 484ft 28kts

Navigation Log

Ident Type
Flight plan parsing failed, navigation log unavailable